sensor_id;sensor_type;location;lat;lon;timestamp;P1;durP1;ratioP1;P2;durP2;ratioP2
50010;SDS011;35899;50.352;19.390;2022-11-18T00:01:08;9.60;;;5.47;;
50010;SDS011;35899;50.352;19.390;2022-11-18T00:06:05;9.23;;;5.40;;
50010;SDS011;35899;50.352;19.390;2022-11-18T00:08:32;10.08;;;5.92;;
50010;SDS011;35899;50.352;19.390;2022-11-18T00:11:03;10.88;;;5.65;;
50010;SDS011;35899;50.352;19.390;2022-11-18T00:13:33;8.58;;;5.05;;
50010;SDS011;35899;50.352;19.390;2022-11-18T00:16:03;8.88;;;4.90;;
50010;SDS011;35899;50.352;19.390;2022-11-18T00:18:36;10.30;;;5.65;;
50010;SDS011;35899;50.352;19.390;2022-11-18T00:21:04;8.40;;;4.75;;
50010;SDS011;35899;50.352;19.390;2022-11-18T00:23:32;9.35;;;5.10;;
50010;SDS011;35899;50.352;19.390;2022-11-18T00:26:04;9.38;;;5.10;;
50010;SDS011;35899;50.352;19.390;2022-11-18T00:28:38;8.80;;;4.87;;
50010;SDS011;35899;50.352;19.390;2022-11-18T00:31:07;9.28;;;5.03;;
50010;SDS011;35899;50.352;19.390;2022-11-18T00:33:36;8.25;;;4.85;;
50010;SDS011;35899;50.352;19.390;2022-11-18T00:36:04;8.63;;;5.08;;
50010;SDS011;35899;50.352;19.390;2022-11-18T00:38:32;7.87;;;4.87;;
50010;SDS011;35899;50.352;19.390;2022-11-18T00:41:07;9.43;;;4.47;;
50010;SDS011;35899;50.352;19.390;2022-11-18T00:43:39;9.48;;;4.60;;
50010;SDS011;35899;50.352;19.390;2022-11-18T00:46:07;7.95;;;4.80;;
50010;SDS011;35899;50.352;19.390;2022-11-18T00:48:35;7.08;;;4.72;;
50010;SDS011;35899;50.352;19.390;2022-11-18T00:51:10;7.55;;;4.53;;
50010;SDS011;35899;50.352;19.390;2022-11-18T00:53:37;8.88;;;5.10;;
50010;SDS011;35899;50.352;19.390;2022-11-18T00:56:03;8.95;;;4.47;;
50010;SDS011;35899;50.352;19.390;2022-11-18T00:58:30;8.28;;;4.72;;
50010;SDS011;35899;50.352;19.390;2022-11-18T01:00:56;7.72;;;4.20;;
50010;SDS011;35899;50.352;19.390;2022-11-18T01:03:23;7.92;;;4.62;;
50010;SDS011;35899;50.352;19.390;2022-11-18T01:05:50;7.45;;;4.25;;
50010;SDS011;35899;50.352;19.390;2022-11-18T01:08:17;7.22;;;4.10;;
50010;SDS011;35899;50.352;19.390;2022-11-18T01:10:44;7.75;;;4.10;;
50010;SDS011;35899;50.352;19.390;2022-11-18T01:13:13;7.53;;;4.03;;
50010;SDS011;35899;50.352;19.390;2022-11-18T01:15:42;8.93;;;4.80;;
50010;SDS011;35899;50.352;19.390;2022-11-18T01:18:12;7.00;;;4.45;;
50010;SDS011;35899;50.352;19.390;2022-11-18T01:20:38;7.85;;;4.83;;
50010;SDS011;35899;50.352;19.390;2022-11-18T01:23:05;9.10;;;4.97;;
50010;SDS011;35899;50.352;19.390;2022-11-18T01:25:31;7.75;;;3.80;;
50010;SDS011;35899;50.352;19.390;2022-11-18T01:27:59;7.72;;;4.30;;
50010;SDS011;35899;50.352;19.390;2022-11-18T01:30:25;7.87;;;4.22;;
50010;SDS011;35899;50.352;19.390;2022-11-18T01:32:52;7.03;;;4.20;;
50010;SDS011;35899;50.352;19.390;2022-11-18T01:35:18;5.97;;;3.60;;
50010;SDS011;35899;50.352;19.390;2022-11-18T01:37:44;6.55;;;3.83;;
50010;SDS011;35899;50.352;19.390;2022-11-18T01:40:11;7.62;;;4.30;;
50010;SDS011;35899;50.352;19.390;2022-11-18T01:42:37;7.37;;;4.45;;
50010;SDS011;35899;50.352;19.390;2022-11-18T01:47:56;6.85;;;4.28;;
50010;SDS011;35899;50.352;19.390;2022-11-18T01:50:29;8.28;;;4.72;;
50010;SDS011;35899;50.352;19.390;2022-11-18T01:52:58;6.78;;;3.90;;
50010;SDS011;35899;50.352;19.390;2022-11-18T01:55:30;6.83;;;3.77;;
50010;SDS011;35899;50.352;19.390;2022-11-18T01:58:09;7.58;;;3.87;;
50010;SDS011;35899;50.352;19.390;2022-11-18T02:00:41;7.55;;;4.53;;
50010;SDS011;35899;50.352;19.390;2022-11-18T02:03:07;6.25;;;3.95;;
50010;SDS011;35899;50.352;19.390;2022-11-18T02:05:34;7.45;;;3.98;;
50010;SDS011;35899;50.352;19.390;2022-11-18T02:08:01;7.55;;;4.60;;
50010;SDS011;35899;50.352;19.390;2022-11-18T02:10:30;6.53;;;4.20;;
50010;SDS011;35899;50.352;19.390;2022-11-18T02:12:56;7.40;;;3.85;;
50010;SDS011;35899;50.352;19.390;2022-11-18T02:15:25;7.83;;;4.90;;
50010;SDS011;35899;50.352;19.390;2022-11-18T02:30:07;8.25;;;4.67;;
50010;SDS011;35899;50.352;19.390;2022-11-18T02:32:42;10.05;;;5.50;;
50010;SDS011;35899;50.352;19.390;2022-11-18T02:35:21;8.18;;;4.95;;
50010;SDS011;35899;50.352;19.390;2022-11-18T02:38:04;9.48;;;5.45;;
50010;SDS011;35899;50.352;19.390;2022-11-18T02:43:23;7.55;;;4.58;;
50010;SDS011;35899;50.352;19.390;2022-11-18T02:45:59;10.03;;;5.08;;
50010;SDS011;35899;50.352;19.390;2022-11-18T02:48:29;7.78;;;4.65;;
50010;SDS011;35899;50.352;19.390;2022-11-18T02:51:00;9.45;;;5.03;;
50010;SDS011;35899;50.352;19.390;2022-11-18T02:53:30;8.78;;;5.05;;
50010;SDS011;35899;50.352;19.390;2022-11-18T02:55:59;8.00;;;4.75;;
50010;SDS011;35899;50.352;19.390;2022-11-18T02:58:27;8.78;;;5.53;;
50010;SDS011;35899;50.352;19.390;2022-11-18T03:00:54;8.75;;;5.42;;
50010;SDS011;35899;50.352;19.390;2022-11-18T03:03:24;8.83;;;5.00;;
50010;SDS011;35899;50.352;19.390;2022-11-18T03:08:40;8.25;;;4.53;;
50010;SDS011;35899;50.352;19.390;2022-11-18T03:11:15;7.12;;;4.20;;
50010;SDS011;35899;50.352;19.390;2022-11-18T03:14:31;9.43;;;5.37;;
50010;SDS011;35899;50.352;19.390;2022-11-18T03:17:00;9.68;;;5.25;;
50010;SDS011;35899;50.352;19.390;2022-11-18T03:25:13;8.65;;;5.58;;
50010;SDS011;35899;50.352;19.390;2022-11-18T03:27:52;7.87;;;4.50;;
50010;SDS011;35899;50.352;19.390;2022-11-18T03:30:23;8.88;;;5.00;;
50010;SDS011;35899;50.352;19.390;2022-11-18T03:33:04;9.73;;;5.75;;
50010;SDS011;35899;50.352;19.390;2022-11-18T03:35:37;9.88;;;5.45;;
50010;SDS011;35899;50.352;19.390;2022-11-18T03:38:10;9.23;;;5.50;;
50010;SDS011;35899;50.352;19.390;2022-11-18T03:40:46;10.45;;;6.25;;
50010;SDS011;35899;50.352;19.390;2022-11-18T03:43:21;12.50;;;7.05;;
50010;SDS011;35899;50.352;19.390;2022-11-18T03:45:55;11.68;;;6.90;;
50010;SDS011;35899;50.352;19.390;2022-11-18T03:48:23;13.60;;;6.58;;
50010;SDS011;35899;50.352;19.390;2022-11-18T03:51:00;11.57;;;7.00;;
50010;SDS011;35899;50.352;19.390;2022-11-18T03:53:35;12.37;;;7.65;;
50010;SDS011;35899;50.352;19.390;2022-11-18T03:56:17;13.35;;;7.42;;
50010;SDS011;35899;50.352;19.390;2022-11-18T03:58:59;11.18;;;6.72;;
50010;SDS011;35899;50.352;19.390;2022-11-18T04:01:58;14.63;;;7.60;;
50010;SDS011;35899;50.352;19.390;2022-11-18T04:04:33;13.30;;;7.40;;
50010;SDS011;35899;50.352;19.390;2022-11-18T04:10:05;12.58;;;7.25;;
50010;SDS011;35899;50.352;19.390;2022-11-18T04:12:41;13.65;;;7.40;;
50010;SDS011;35899;50.352;19.390;2022-11-18T04:15:29;14.38;;;8.15;;
50010;SDS011;35899;50.352;19.390;2022-11-18T04:17:57;16.85;;;8.25;;
50010;SDS011;35899;50.352;19.390;2022-11-18T04:20:24;12.65;;;6.85;;
50010;SDS011;35899;50.352;19.390;2022-11-18T04:22:52;13.68;;;6.62;;
50010;SDS011;35899;50.352;19.390;2022-11-18T04:25:18;13.30;;;7.15;;
50010;SDS011;35899;50.352;19.390;2022-11-18T04:27:44;11.05;;;6.75;;
50010;SDS011;35899;50.352;19.390;2022-11-18T04:30:11;12.43;;;6.85;;
50010;SDS011;35899;50.352;19.390;2022-11-18T04:32:38;12.25;;;6.78;;
50010;SDS011;35899;50.352;19.390;2022-11-18T04:35:04;11.53;;;6.80;;
50010;SDS011;35899;50.352;19.390;2022-11-18T04:37:31;11.70;;;6.90;;
50010;SDS011;35899;50.352;19.390;2022-11-18T04:39:57;12.68;;;7.20;;
50010;SDS011;35899;50.352;19.390;2022-11-18T04:42:24;11.88;;;7.22;;
50010;SDS011;35899;50.352;19.390;2022-11-18T04:44:50;13.32;;;7.40;;
50010;SDS011;35899;50.352;19.390;2022-11-18T04:47:17;13.40;;;7.10;;
50010;SDS011;35899;50.352;19.390;2022-11-18T04:49:43;13.98;;;7.20;;
50010;SDS011;35899;50.352;19.390;2022-11-18T04:52:10;12.25;;;6.47;;
50010;SDS011;35899;50.352;19.390;2022-11-18T04:54:36;10.95;;;5.75;;
50010;SDS011;35899;50.352;19.390;2022-11-18T04:57:02;12.25;;;6.70;;
50010;SDS011;35899;50.352;19.390;2022-11-18T04:59:29;12.90;;;6.67;;
50010;SDS011;35899;50.352;19.390;2022-11-18T05:01:55;11.93;;;6.35;;
50010;SDS011;35899;50.352;19.390;2022-11-18T05:04:23;14.35;;;7.62;;
50010;SDS011;35899;50.352;19.390;2022-11-18T05:06:53;13.25;;;7.15;;
50010;SDS011;35899;50.352;19.390;2022-11-18T05:09:19;17.17;;;8.73;;
50010;SDS011;35899;50.352;19.390;2022-11-18T05:11:45;13.53;;;8.08;;
50010;SDS011;35899;50.352;19.390;2022-11-18T05:14:12;14.73;;;7.72;;
50010;SDS011;35899;50.352;19.390;2022-11-18T05:16:38;14.87;;;8.05;;
50010;SDS011;35899;50.352;19.390;2022-11-18T05:19:05;13.53;;;7.55;;
50010;SDS011;35899;50.352;19.390;2022-11-18T05:21:33;12.55;;;7.47;;
50010;SDS011;35899;50.352;19.390;2022-11-18T05:23:59;13.10;;;7.53;;
50010;SDS011;35899;50.352;19.390;2022-11-18T05:26:26;17.35;;;8.43;;
50010;SDS011;35899;50.352;19.390;2022-11-18T05:28:53;12.45;;;7.55;;
50010;SDS011;35899;50.352;19.390;2022-11-18T05:31:20;16.93;;;8.90;;
50010;SDS011;35899;50.352;19.390;2022-11-18T05:33:46;17.02;;;8.60;;
50010;SDS011;35899;50.352;19.390;2022-11-18T05:36:14;13.53;;;7.37;;
50010;SDS011;35899;50.352;19.390;2022-11-18T05:38:43;18.45;;;8.73;;
50010;SDS011;35899;50.352;19.390;2022-11-18T05:41:09;18.30;;;9.90;;
50010;SDS011;35899;50.352;19.390;2022-11-18T05:43:36;18.10;;;8.93;;
50010;SDS011;35899;50.352;19.390;2022-11-18T05:46:03;15.35;;;8.98;;
50010;SDS011;35899;50.352;19.390;2022-11-18T05:48:30;19.60;;;9.58;;
50010;SDS011;35899;50.352;19.390;2022-11-18T05:50:56;17.92;;;9.15;;
50010;SDS011;35899;50.352;19.390;2022-11-18T05:53:23;18.20;;;9.13;;
50010;SDS011;35899;50.352;19.390;2022-11-18T05:56:00;20.43;;;9.50;;
50010;SDS011;35899;50.352;19.390;2022-11-18T05:58:36;19.25;;;9.88;;
50010;SDS011;35899;50.352;19.390;2022-11-18T06:01:03;20.97;;;9.53;;
50010;SDS011;35899;50.352;19.390;2022-11-18T06:03:32;21.93;;;9.95;;
50010;SDS011;35899;50.352;19.390;2022-11-18T06:06:03;22.82;;;9.73;;
50010;SDS011;35899;50.352;19.390;2022-11-18T06:08:32;22.52;;;9.78;;
50010;SDS011;35899;50.352;19.390;2022-11-18T06:11:02;26.05;;;11.63;;
50010;SDS011;35899;50.352;19.390;2022-11-18T06:13:32;26.85;;;11.50;;
50010;SDS011;35899;50.352;19.390;2022-11-18T06:16:02;21.73;;;8.83;;
50010;SDS011;35899;50.352;19.390;2022-11-18T06:18:29;21.87;;;9.88;;
50010;SDS011;35899;50.352;19.390;2022-11-18T06:21:02;23.60;;;10.32;;
50010;SDS011;35899;50.352;19.390;2022-11-18T06:23:29;21.02;;;8.48;;
50010;SDS011;35899;50.352;19.390;2022-11-18T06:26:01;23.70;;;9.30;;
50010;SDS011;35899;50.352;19.390;2022-11-18T06:28:28;23.62;;;10.40;;
50010;SDS011;35899;50.352;19.390;2022-11-18T06:30:55;18.02;;;9.00;;
50010;SDS011;35899;50.352;19.390;2022-11-18T06:33:21;20.97;;;8.80;;
50010;SDS011;35899;50.352;19.390;2022-11-18T06:35:48;20.15;;;8.93;;
50010;SDS011;35899;50.352;19.390;2022-11-18T06:38:14;21.77;;;9.73;;
50010;SDS011;35899;50.352;19.390;2022-11-18T06:40:40;24.57;;;10.25;;
50010;SDS011;35899;50.352;19.390;2022-11-18T06:43:07;21.45;;;8.80;;
50010;SDS011;35899;50.352;19.390;2022-11-18T06:45:35;22.07;;;8.80;;
50010;SDS011;35899;50.352;19.390;2022-11-18T06:48:01;19.67;;;8.03;;
50010;SDS011;35899;50.352;19.390;2022-11-18T06:50:29;15.50;;;7.37;;
50010;SDS011;35899;50.352;19.390;2022-11-18T06:52:58;19.98;;;8.75;;
50010;SDS011;35899;50.352;19.390;2022-11-18T06:55:26;16.65;;;7.80;;
50010;SDS011;35899;50.352;19.390;2022-11-18T06:57:54;18.25;;;8.13;;
50010;SDS011;35899;50.352;19.390;2022-11-18T07:00:21;15.72;;;7.78;;
50010;SDS011;35899;50.352;19.390;2022-11-18T07:02:48;18.73;;;8.70;;
50010;SDS011;35899;50.352;19.390;2022-11-18T07:05:14;16.90;;;8.20;;
50010;SDS011;35899;50.352;19.390;2022-11-18T07:07:40;17.15;;;8.35;;
50010;SDS011;35899;50.352;19.390;2022-11-18T07:10:07;19.75;;;8.70;;
50010;SDS011;35899;50.352;19.390;2022-11-18T07:12:34;13.75;;;6.37;;
50010;SDS011;35899;50.352;19.390;2022-11-18T07:15:00;16.95;;;8.33;;
50010;SDS011;35899;50.352;19.390;2022-11-18T07:17:28;14.13;;;6.80;;
50010;SDS011;35899;50.352;19.390;2022-11-18T07:19:55;16.48;;;7.85;;
50010;SDS011;35899;50.352;19.390;2022-11-18T07:22:22;16.35;;;8.38;;
50010;SDS011;35899;50.352;19.390;2022-11-18T07:24:48;19.70;;;9.18;;
50010;SDS011;35899;50.352;19.390;2022-11-18T07:27:14;14.83;;;7.65;;
50010;SDS011;35899;50.352;19.390;2022-11-18T07:29:41;17.15;;;8.25;;
50010;SDS011;35899;50.352;19.390;2022-11-18T07:32:07;14.70;;;7.10;;
50010;SDS011;35899;50.352;19.390;2022-11-18T07:34:34;13.28;;;6.75;;
50010;SDS011;35899;50.352;19.390;2022-11-18T07:37:00;13.60;;;6.30;;
50010;SDS011;35899;50.352;19.390;2022-11-18T07:39:26;14.28;;;6.72;;
50010;SDS011;35899;50.352;19.390;2022-11-18T07:41:53;14.83;;;6.92;;
50010;SDS011;35899;50.352;19.390;2022-11-18T07:44:19;16.23;;;7.70;;
50010;SDS011;35899;50.352;19.390;2022-11-18T07:46:45;13.50;;;6.08;;
50010;SDS011;35899;50.352;19.390;2022-11-18T07:49:12;15.05;;;7.37;;
50010;SDS011;35899;50.352;19.390;2022-11-18T07:51:38;15.03;;;8.10;;
50010;SDS011;35899;50.352;19.390;2022-11-18T07:54:06;15.30;;;7.30;;
50010;SDS011;35899;50.352;19.390;2022-11-18T07:56:35;18.87;;;7.70;;
50010;SDS011;35899;50.352;19.390;2022-11-18T07:59:02;13.70;;;8.03;;
50010;SDS011;35899;50.352;19.390;2022-11-18T08:01:29;14.95;;;7.28;;
50010;SDS011;35899;50.352;19.390;2022-11-18T08:03:56;13.32;;;6.58;;
50010;SDS011;35899;50.352;19.390;2022-11-18T08:06:25;14.45;;;7.35;;
50010;SDS011;35899;50.352;19.390;2022-11-18T08:08:52;14.13;;;7.30;;
50010;SDS011;35899;50.352;19.390;2022-11-18T08:11:18;16.85;;;7.65;;
50010;SDS011;35899;50.352;19.390;2022-11-18T08:13:45;16.20;;;8.08;;
50010;SDS011;35899;50.352;19.390;2022-11-18T08:16:12;15.60;;;7.62;;
50010;SDS011;35899;50.352;19.390;2022-11-18T08:18:44;18.55;;;8.05;;
50010;SDS011;35899;50.352;19.390;2022-11-18T08:21:11;18.67;;;9.50;;
50010;SDS011;35899;50.352;19.390;2022-11-18T08:23:39;23.20;;;9.83;;
50010;SDS011;35899;50.352;19.390;2022-11-18T08:26:10;17.25;;;9.05;;
50010;SDS011;35899;50.352;19.390;2022-11-18T08:28:39;19.35;;;9.43;;
50010;SDS011;35899;50.352;19.390;2022-11-18T08:31:08;23.90;;;10.75;;
50010;SDS011;35899;50.352;19.390;2022-11-18T08:33:36;22.15;;;10.18;;
50010;SDS011;35899;50.352;19.390;2022-11-18T08:36:09;24.77;;;10.63;;
50010;SDS011;35899;50.352;19.390;2022-11-18T08:38:44;21.90;;;10.63;;
50010;SDS011;35899;50.352;19.390;2022-11-18T08:41:11;23.98;;;11.65;;
50010;SDS011;35899;50.352;19.390;2022-11-18T08:43:50;20.88;;;9.73;;
50010;SDS011;35899;50.352;19.390;2022-11-18T08:46:17;22.55;;;10.05;;
50010;SDS011;35899;50.352;19.390;2022-11-18T08:48:43;21.17;;;10.45;;
50010;SDS011;35899;50.352;19.390;2022-11-18T08:51:10;19.27;;;9.28;;
50010;SDS011;35899;50.352;19.390;2022-11-18T08:53:38;22.48;;;10.65;;
50010;SDS011;35899;50.352;19.390;2022-11-18T08:56:04;20.68;;;9.80;;
50010;SDS011;35899;50.352;19.390;2022-11-18T08:58:33;21.97;;;10.38;;
50010;SDS011;35899;50.352;19.390;2022-11-18T09:01:03;23.47;;;11.30;;
50010;SDS011;35899;50.352;19.390;2022-11-18T09:03:31;25.45;;;12.25;;
50010;SDS011;35899;50.352;19.390;2022-11-18T09:06:09;26.55;;;11.48;;
50010;SDS011;35899;50.352;19.390;2022-11-18T09:08:38;24.12;;;11.55;;
50010;SDS011;35899;50.352;19.390;2022-11-18T09:11:16;23.92;;;11.50;;
50010;SDS011;35899;50.352;19.390;2022-11-18T09:13:45;21.25;;;10.48;;
50010;SDS011;35899;50.352;19.390;2022-11-18T09:16:27;24.45;;;10.50;;
50010;SDS011;35899;50.352;19.390;2022-11-18T09:18:55;25.25;;;12.05;;
50010;SDS011;35899;50.352;19.390;2022-11-18T09:21:23;24.12;;;12.07;;
50010;SDS011;35899;50.352;19.390;2022-11-18T09:23:50;27.40;;;11.75;;
50010;SDS011;35899;50.352;19.390;2022-11-18T09:26:18;27.90;;;12.58;;
50010;SDS011;35899;50.352;19.390;2022-11-18T09:28:46;27.17;;;12.65;;
50010;SDS011;35899;50.352;19.390;2022-11-18T09:31:14;26.27;;;12.75;;
50010;SDS011;35899;50.352;19.390;2022-11-18T09:33:42;27.25;;;12.65;;
50010;SDS011;35899;50.352;19.390;2022-11-18T09:36:15;22.27;;;10.63;;
50010;SDS011;35899;50.352;19.390;2022-11-18T09:38:43;25.15;;;12.80;;
50010;SDS011;35899;50.352;19.390;2022-11-18T09:50:04;25.02;;;13.20;;
50010;SDS011;35899;50.352;19.390;2022-11-18T09:52:36;27.00;;;13.83;;
50010;SDS011;35899;50.352;19.390;2022-11-18T09:55:11;24.80;;;12.70;;
50010;SDS011;35899;50.352;19.390;2022-11-18T09:57:44;27.58;;;13.65;;
50010;SDS011;35899;50.352;19.390;2022-11-18T10:00:23;23.42;;;11.30;;
50010;SDS011;35899;50.352;19.390;2022-11-18T10:05:55;26.02;;;12.65;;
50010;SDS011;35899;50.352;19.390;2022-11-18T10:21:01;24.63;;;13.35;;
50010;SDS011;35899;50.352;19.390;2022-11-18T10:23:50;26.50;;;14.03;;
50010;SDS011;35899;50.352;19.390;2022-11-18T10:26:33;27.77;;;13.55;;
50010;SDS011;35899;50.352;19.390;2022-11-18T10:29:02;28.00;;;13.38;;
50010;SDS011;35899;50.352;19.390;2022-11-18T10:31:29;27.05;;;14.10;;
50010;SDS011;35899;50.352;19.390;2022-11-18T10:33:59;25.52;;;14.23;;
50010;SDS011;35899;50.352;19.390;2022-11-18T10:36:27;25.97;;;12.13;;
50010;SDS011;35899;50.352;19.390;2022-11-18T10:39:07;29.50;;;14.03;;
50010;SDS011;35899;50.352;19.390;2022-11-18T10:41:45;25.88;;;12.68;;
50010;SDS011;35899;50.352;19.390;2022-11-18T10:47:13;23.65;;;12.78;;
50010;SDS011;35899;50.352;19.390;2022-11-18T10:49:43;24.20;;;11.88;;
50010;SDS011;35899;50.352;19.390;2022-11-18T10:52:10;24.52;;;12.03;;
50010;SDS011;35899;50.352;19.390;2022-11-18T10:54:39;21.57;;;11.35;;
50010;SDS011;35899;50.352;19.390;2022-11-18T10:57:13;21.70;;;11.45;;
50010;SDS011;35899;50.352;19.390;2022-11-18T10:59:50;25.77;;;12.33;;
50010;SDS011;35899;50.352;19.390;2022-11-18T11:02:24;19.73;;;9.58;;
50010;SDS011;35899;50.352;19.390;2022-11-18T11:05:17;23.50;;;11.22;;
50010;SDS011;35899;50.352;19.390;2022-11-18T11:08:21;23.52;;;11.05;;
50010;SDS011;35899;50.352;19.390;2022-11-18T11:10:33;24.10;;;12.30;;
50010;SDS011;35899;50.352;19.390;2022-11-18T11:13:03;25.08;;;12.28;;
50010;SDS011;35899;50.352;19.390;2022-11-18T11:15:38;22.37;;;11.68;;
50010;SDS011;35899;50.352;19.390;2022-11-18T11:20:52;22.52;;;10.53;;
50010;SDS011;35899;50.352;19.390;2022-11-18T11:23:19;23.75;;;12.88;;
50010;SDS011;35899;50.352;19.390;2022-11-18T11:28:41;22.05;;;11.85;;
50010;SDS011;35899;50.352;19.390;2022-11-18T11:31:31;24.45;;;11.10;;
50010;SDS011;35899;50.352;19.390;2022-11-18T11:51:26;23.62;;;11.38;;
50010;SDS011;35899;50.352;19.390;2022-11-18T11:54:23;23.70;;;11.40;;
50010;SDS011;35899;50.352;19.390;2022-11-18T11:57:30;23.47;;;11.80;;
50010;SDS011;35899;50.352;19.390;2022-11-18T12:00:13;23.10;;;11.18;;
50010;SDS011;35899;50.352;19.390;2022-11-18T12:02:55;23.20;;;11.80;;
50010;SDS011;35899;50.352;19.390;2022-11-18T12:05:37;26.13;;;12.00;;
50010;SDS011;35899;50.352;19.390;2022-11-18T12:08:07;24.65;;;11.60;;
50010;SDS011;35899;50.352;19.390;2022-11-18T12:10:52;20.77;;;10.63;;
50010;SDS011;35899;50.352;19.390;2022-11-18T12:16:51;22.58;;;11.30;;
50010;SDS011;35899;50.352;19.390;2022-11-18T12:19:42;22.42;;;11.08;;
50010;SDS011;35899;50.352;19.390;2022-11-18T12:22:09;22.62;;;10.90;;
50010;SDS011;35899;50.352;19.390;2022-11-18T12:24:36;21.80;;;10.13;;
50010;SDS011;35899;50.352;19.390;2022-11-18T12:30:16;23.40;;;11.10;;
50010;SDS011;35899;50.352;19.390;2022-11-18T12:32:37;22.55;;;11.75;;
50010;SDS011;35899;50.352;19.390;2022-11-18T12:40:32;23.27;;;11.97;;
50010;SDS011;35899;50.352;19.390;2022-11-18T12:45:56;23.77;;;11.95;;
50010;SDS011;35899;50.352;19.390;2022-11-18T12:48:33;24.10;;;12.15;;
50010;SDS011;35899;50.352;19.390;2022-11-18T12:53:47;23.77;;;10.98;;
50010;SDS011;35899;50.352;19.390;2022-11-18T12:58:53;25.50;;;12.10;;
50010;SDS011;35899;50.352;19.390;2022-11-18T13:01:26;21.85;;;11.65;;
50010;SDS011;35899;50.352;19.390;2022-11-18T13:03:52;24.63;;;12.15;;
50010;SDS011;35899;50.352;19.390;2022-11-18T13:06:40;24.30;;;12.75;;
50010;SDS011;35899;50.352;19.390;2022-11-18T13:09:15;25.68;;;12.03;;
50010;SDS011;35899;50.352;19.390;2022-11-18T13:14:38;25.57;;;13.03;;
50010;SDS011;35899;50.352;19.390;2022-11-18T13:22:57;24.60;;;13.05;;
50010;SDS011;35899;50.352;19.390;2022-11-18T13:25:31;23.67;;;12.68;;
50010;SDS011;35899;50.352;19.390;2022-11-18T13:28:00;24.57;;;13.15;;
50010;SDS011;35899;50.352;19.390;2022-11-18T13:30:53;24.23;;;13.10;;
50010;SDS011;35899;50.352;19.390;2022-11-18T13:33:52;24.65;;;13.38;;
50010;SDS011;35899;50.352;19.390;2022-11-18T13:36:22;27.85;;;13.45;;
50010;SDS011;35899;50.352;19.390;2022-11-18T13:38:54;29.15;;;13.98;;
50010;SDS011;35899;50.352;19.390;2022-11-18T13:41:31;26.60;;;13.55;;
50010;SDS011;35899;50.352;19.390;2022-11-18T13:46:54;29.32;;;13.30;;
50010;SDS011;35899;50.352;19.390;2022-11-18T13:49:47;27.17;;;14.05;;
50010;SDS011;35899;50.352;19.390;2022-11-18T13:52:33;28.50;;;13.75;;
50010;SDS011;35899;50.352;19.390;2022-11-18T13:55:20;29.27;;;14.23;;
50010;SDS011;35899;50.352;19.390;2022-11-18T13:57:51;27.62;;;13.13;;
50010;SDS011;35899;50.352;19.390;2022-11-18T14:00:28;28.47;;;13.98;;
50010;SDS011;35899;50.352;19.390;2022-11-18T14:02:58;27.22;;;13.68;;
50010;SDS011;35899;50.352;19.390;2022-11-18T14:05:28;29.57;;;14.43;;
50010;SDS011;35899;50.352;19.390;2022-11-18T14:07:56;33.25;;;15.43;;
50010;SDS011;35899;50.352;19.390;2022-11-18T14:10:38;30.85;;;13.70;;
50010;SDS011;35899;50.352;19.390;2022-11-18T14:15:54;25.62;;;12.15;;
50010;SDS011;35899;50.352;19.390;2022-11-18T14:18:28;27.98;;;12.75;;
50010;SDS011;35899;50.352;19.390;2022-11-18T14:21:00;27.15;;;12.78;;
50010;SDS011;35899;50.352;19.390;2022-11-18T14:23:33;25.45;;;12.13;;
50010;SDS011;35899;50.352;19.390;2022-11-18T14:26:04;25.90;;;12.45;;
50010;SDS011;35899;50.352;19.390;2022-11-18T14:28:37;22.82;;;11.00;;
50010;SDS011;35899;50.352;19.390;2022-11-18T14:31:23;24.25;;;11.53;;
50010;SDS011;35899;50.352;19.390;2022-11-18T14:34:03;23.32;;;10.78;;
50010;SDS011;35899;50.352;19.390;2022-11-18T14:36:51;22.40;;;11.45;;
50010;SDS011;35899;50.352;19.390;2022-11-18T14:39:26;22.73;;;11.28;;
50010;SDS011;35899;50.352;19.390;2022-11-18T14:41:56;25.08;;;12.13;;
50010;SDS011;35899;50.352;19.390;2022-11-18T14:44:25;23.92;;;11.35;;
50010;SDS011;35899;50.352;19.390;2022-11-18T14:46:57;23.02;;;11.08;;
50010;SDS011;35899;50.352;19.390;2022-11-18T14:49:23;25.27;;;11.38;;
50010;SDS011;35899;50.352;19.390;2022-11-18T14:51:52;24.60;;;10.75;;
50010;SDS011;35899;50.352;19.390;2022-11-18T14:54:20;21.42;;;9.03;;
50010;SDS011;35899;50.352;19.390;2022-11-18T14:56:48;21.77;;;10.05;;
50010;SDS011;35899;50.352;19.390;2022-11-18T14:59:17;20.45;;;10.23;;
50010;SDS011;35899;50.352;19.390;2022-11-18T15:01:45;20.55;;;9.68;;
50010;SDS011;35899;50.352;19.390;2022-11-18T15:04:12;21.70;;;9.73;;
50010;SDS011;35899;50.352;19.390;2022-11-18T15:06:39;20.60;;;10.35;;
50010;SDS011;35899;50.352;19.390;2022-11-18T15:09:06;21.45;;;10.25;;
50010;SDS011;35899;50.352;19.390;2022-11-18T15:11:33;19.60;;;10.40;;
50010;SDS011;35899;50.352;19.390;2022-11-18T15:14:00;19.15;;;10.28;;
50010;SDS011;35899;50.352;19.390;2022-11-18T15:16:28;20.80;;;9.93;;
50010;SDS011;35899;50.352;19.390;2022-11-18T15:18:57;19.10;;;9.15;;
50010;SDS011;35899;50.352;19.390;2022-11-18T15:21:28;16.87;;;8.33;;
50010;SDS011;35899;50.352;19.390;2022-11-18T15:23:55;16.42;;;7.75;;
50010;SDS011;35899;50.352;19.390;2022-11-18T15:26:25;19.85;;;9.48;;
50010;SDS011;35899;50.352;19.390;2022-11-18T15:28:55;19.92;;;9.85;;
50010;SDS011;35899;50.352;19.390;2022-11-18T15:31:23;23.75;;;10.43;;
50010;SDS011;35899;50.352;19.390;2022-11-18T15:33:50;17.85;;;8.50;;
50010;SDS011;35899;50.352;19.390;2022-11-18T15:36:18;19.27;;;9.33;;
50010;SDS011;35899;50.352;19.390;2022-11-18T15:38:48;19.15;;;9.00;;
50010;SDS011;35899;50.352;19.390;2022-11-18T15:41:25;18.60;;;8.78;;
50010;SDS011;35899;50.352;19.390;2022-11-18T15:43:49;26.80;;;11.60;;
50010;SDS011;35899;50.352;19.390;2022-11-18T15:46:16;20.77;;;10.32;;
50010;SDS011;35899;50.352;19.390;2022-11-18T15:48:45;22.20;;;9.50;;
50010;SDS011;35899;50.352;19.390;2022-11-18T15:51:13;19.95;;;9.83;;
50010;SDS011;35899;50.352;19.390;2022-11-18T15:53:39;23.15;;;11.38;;
50010;SDS011;35899;50.352;19.390;2022-11-18T15:56:39;22.80;;;10.78;;
50010;SDS011;35899;50.352;19.390;2022-11-18T16:01:33;26.02;;;12.35;;
50010;SDS011;35899;50.352;19.390;2022-11-18T16:04:09;26.65;;;11.73;;
50010;SDS011;35899;50.352;19.390;2022-11-18T16:06:37;23.73;;;11.28;;
50010;SDS011;35899;50.352;19.390;2022-11-18T16:09:05;23.98;;;11.00;;
50010;SDS011;35899;50.352;19.390;2022-11-18T16:11:31;22.37;;;11.05;;
50010;SDS011;35899;50.352;19.390;2022-11-18T16:14:02;26.37;;;13.40;;
50010;SDS011;35899;50.352;19.390;2022-11-18T16:16:31;25.95;;;12.55;;
50010;SDS011;35899;50.352;19.390;2022-11-18T16:18:59;29.48;;;12.82;;
50010;SDS011;35899;50.352;19.390;2022-11-18T16:21:30;25.55;;;12.33;;
50010;SDS011;35899;50.352;19.390;2022-11-18T16:24:00;26.37;;;11.80;;
50010;SDS011;35899;50.352;19.390;2022-11-18T16:26:29;26.33;;;11.63;;
50010;SDS011;35899;50.352;19.390;2022-11-18T16:28:57;23.47;;;11.22;;
50010;SDS011;35899;50.352;19.390;2022-11-18T16:31:25;27.52;;;12.78;;
50010;SDS011;35899;50.352;19.390;2022-11-18T16:33:52;25.60;;;12.60;;
50010;SDS011;35899;50.352;19.390;2022-11-18T16:36:25;25.48;;;12.15;;
50010;SDS011;35899;50.352;19.390;2022-11-18T16:38:53;22.98;;;10.00;;